createdAt,value
2023-04-03T00:00:53.750Z,3.20
2023-04-03T00:03:21.212Z,3.30
2023-04-03T00:05:48.080Z,3.20
2023-04-03T00:08:14.798Z,3.20
2023-04-03T00:10:41.725Z,3.20
2023-04-03T00:13:09.240Z,3.20
2023-04-03T00:15:37.020Z,3.20
2023-04-03T00:18:05.032Z,3.10
2023-04-03T00:20:32.159Z,3.20
2023-04-03T00:22:58.903Z,3.10
2023-04-03T00:25:25.966Z,3.10
2023-04-03T00:27:52.797Z,3.10
2023-04-03T00:30:22.056Z,3.10
2023-04-03T00:32:50.193Z,3.10
2023-04-03T00:35:17.331Z,3.10
2023-04-03T00:37:45.122Z,3.10
2023-04-03T00:40:14.005Z,3.10
2023-04-03T00:42:42.589Z,3.10
2023-04-03T00:45:12.455Z,3.00
2023-04-03T00:47:46.971Z,3.10
2023-04-03T00:50:15.849Z,3.10
2023-04-03T00:52:42.524Z,3.00
2023-04-03T00:55:10.463Z,3.10
2023-04-03T00:57:38.312Z,3.10
2023-04-03T01:00:10.922Z,3.00
2023-04-03T01:02:38.395Z,3.00
2023-04-03T01:05:05.765Z,3.00
2023-04-03T01:07:34.347Z,3.00
2023-04-03T01:10:04.647Z,2.90
2023-04-03T01:12:36.887Z,2.90
2023-04-03T01:15:10.742Z,2.90
2023-04-03T01:17:43.409Z,2.90
2023-04-03T01:20:28.217Z,2.90
2023-04-03T01:23:10.582Z,2.90
2023-04-03T01:25:44.006Z,2.90
2023-04-03T01:28:13.831Z,2.90
2023-04-03T01:30:52.163Z,2.90
2023-04-03T01:33:18.993Z,2.90
2023-04-03T01:35:46.064Z,2.80
2023-04-03T01:38:12.771Z,2.80
2023-04-03T01:40:39.555Z,2.90
2023-04-03T01:43:06.248Z,2.90
2023-04-03T01:45:33.160Z,2.90
2023-04-03T01:48:00.085Z,2.80
2023-04-03T01:50:26.820Z,2.80
2023-04-03T01:52:53.534Z,2.80
2023-04-03T01:55:20.368Z,2.80
2023-04-03T01:57:47.183Z,2.80
2023-04-03T02:00:14.512Z,2.80
2023-04-03T02:02:41.529Z,2.80
2023-04-03T02:05:08.576Z,2.80
2023-04-03T02:07:35.602Z,2.80
2023-04-03T02:10:02.644Z,2.80
2023-04-03T02:12:29.476Z,2.80
2023-04-03T02:14:56.217Z,2.70
2023-04-03T02:17:22.970Z,2.70
2023-04-03T02:19:49.791Z,2.70
2023-04-03T02:22:16.482Z,2.70
2023-04-03T02:24:43.236Z,2.70
2023-04-03T02:27:09.962Z,2.70
2023-04-03T02:29:36.834Z,2.70
2023-04-03T02:32:03.562Z,2.70
2023-04-03T02:34:30.314Z,2.70
2023-04-03T02:36:57.012Z,2.70
2023-04-03T02:39:23.733Z,2.70
2023-04-03T02:41:50.408Z,2.80
2023-04-03T02:44:17.199Z,2.70
2023-04-03T02:46:43.974Z,2.70
2023-04-03T02:49:10.911Z,2.70
2023-04-03T02:51:37.609Z,2.70
2023-04-03T02:54:04.477Z,2.70
2023-04-03T02:56:31.438Z,2.60
2023-04-03T02:58:58.112Z,2.70
2023-04-03T03:01:25.149Z,2.60
2023-04-03T03:03:52.007Z,2.60
2023-04-03T03:06:18.862Z,2.60
2023-04-03T03:08:45.704Z,2.60
2023-04-03T03:11:12.834Z,2.60
2023-04-03T03:13:39.564Z,2.60
2023-04-03T03:16:07.034Z,2.60
2023-04-03T03:18:34.080Z,2.60
2023-04-03T03:21:02.345Z,2.60
2023-04-03T03:23:30.963Z,2.60
2023-04-03T03:26:03.962Z,2.60
2023-04-03T03:28:31.195Z,2.60
2023-04-03T03:30:58.961Z,2.60
2023-04-03T03:33:26.300Z,2.60
2023-04-03T03:35:54.777Z,2.60
2023-04-03T03:38:21.733Z,2.60
2023-04-03T03:40:49.895Z,2.50
2023-04-03T03:43:16.959Z,2.50
2023-04-03T03:45:44.030Z,2.50
2023-04-03T03:48:10.951Z,2.50
2023-04-03T03:50:37.955Z,2.50
2023-04-03T03:53:04.761Z,2.50
2023-04-03T03:55:31.424Z,2.50
2023-04-03T03:57:58.170Z,2.50
2023-04-03T04:00:24.859Z,2.50
2023-04-03T04:02:51.817Z,2.50
2023-04-03T04:05:18.880Z,2.50
2023-04-03T04:07:45.557Z,2.40
2023-04-03T04:10:12.415Z,2.50
2023-04-03T04:12:39.140Z,2.40
2023-04-03T04:15:06.307Z,2.50
2023-04-03T04:17:33.230Z,2.50
2023-04-03T04:19:59.961Z,2.50
2023-04-03T04:22:26.717Z,2.40
2023-04-03T04:24:53.450Z,2.50
2023-04-03T04:27:20.285Z,2.50
2023-04-03T04:29:46.948Z,2.50
2023-04-03T04:32:13.989Z,2.40
2023-04-03T04:34:40.885Z,2.50
2023-04-03T04:37:07.721Z,2.50
2023-04-03T04:39:34.534Z,2.50
2023-04-03T04:42:01.401Z,2.40
2023-04-03T04:44:28.162Z,2.40
2023-04-03T04:46:54.856Z,2.40
2023-04-03T04:49:21.604Z,2.40
2023-04-03T04:51:52.080Z,2.50
2023-04-03T04:54:19.256Z,2.50
2023-04-03T04:56:45.975Z,2.50
2023-04-03T04:59:12.926Z,2.50
2023-04-03T05:01:40.006Z,2.40
2023-04-03T05:04:07.069Z,2.50
2023-04-03T05:06:34.001Z,2.50
2023-04-03T05:09:00.997Z,2.40
2023-04-03T05:11:28.198Z,2.50
2023-04-03T05:13:54.949Z,2.50
2023-04-03T05:16:21.702Z,2.50
2023-04-03T05:18:48.711Z,2.40
2023-04-03T05:21:15.685Z,2.50
2023-04-03T05:23:42.416Z,2.50
2023-04-03T05:26:09.199Z,2.50
2023-04-03T05:28:36.035Z,2.50
2023-04-03T05:31:03.246Z,2.50
2023-04-03T05:33:30.313Z,2.50
2023-04-03T05:35:57.088Z,2.50
2023-04-03T05:38:24.161Z,2.50
2023-04-03T05:40:51.123Z,2.50
2023-04-03T05:43:17.969Z,2.50
2023-04-03T05:45:46.293Z,2.50
2023-04-03T05:48:13.783Z,2.60
2023-04-03T05:50:42.582Z,2.50
2023-04-03T05:53:22.946Z,2.60
2023-04-03T05:55:49.699Z,2.60
2023-04-03T05:58:16.495Z,2.50
2023-04-03T06:00:43.449Z,2.60
2023-04-03T06:03:10.387Z,2.50
2023-04-03T06:05:38.054Z,2.60
2023-04-03T06:08:05.069Z,2.60
2023-04-03T06:10:31.906Z,2.60
2023-04-03T06:12:58.693Z,2.60
2023-04-03T06:15:25.835Z,2.60
2023-04-03T06:17:52.552Z,2.70
2023-04-03T06:20:19.303Z,2.70
2023-04-03T06:22:46.063Z,2.60
2023-04-03T06:25:13.216Z,2.70
2023-04-03T06:27:40.056Z,2.70
2023-04-03T06:30:08.519Z,2.70
2023-04-03T06:32:35.444Z,2.70
2023-04-03T06:35:02.229Z,2.70
2023-04-03T06:37:32.253Z,2.70
2023-04-03T06:40:01.365Z,2.70
2023-04-03T06:42:28.296Z,2.70
2023-04-03T06:44:55.053Z,2.70
2023-04-03T06:47:21.825Z,2.70
2023-04-03T06:49:48.745Z,2.70
2023-04-03T06:52:15.451Z,2.70
2023-04-03T06:54:42.690Z,2.70
2023-04-03T06:57:09.741Z,2.70
2023-04-03T06:59:37.600Z,2.70
2023-04-03T07:02:04.691Z,2.80
2023-04-03T07:04:31.746Z,2.80
2023-04-03T07:06:58.602Z,2.90
2023-04-03T07:09:25.617Z,2.90
2023-04-03T07:11:52.602Z,3.00
2023-04-03T07:14:19.537Z,2.90
2023-04-03T07:16:46.356Z,2.90
2023-04-03T07:19:13.229Z,2.90
2023-04-03T07:21:40.085Z,2.90
2023-04-03T07:24:08.037Z,3.00
2023-04-03T07:26:37.194Z,3.00
2023-04-03T07:29:04.049Z,3.00
2023-04-03T07:31:30.765Z,3.00
2023-04-03T07:33:57.598Z,3.10
2023-04-03T07:36:25.275Z,3.20
2023-04-03T07:38:52.195Z,3.20
2023-04-03T07:41:23.391Z,3.20
2023-04-03T07:43:50.795Z,3.20
2023-04-03T07:46:18.633Z,3.20
2023-04-03T07:48:46.098Z,3.30
2023-04-03T07:51:13.976Z,3.30
2023-04-03T07:53:40.678Z,3.40
2023-04-03T07:56:08.160Z,3.40
2023-04-03T07:58:35.117Z,3.50
2023-04-03T08:01:01.944Z,3.50
2023-04-03T08:03:28.952Z,3.50
2023-04-03T08:05:56.197Z,3.50
2023-04-03T08:08:24.344Z,3.50
2023-04-03T08:10:55.174Z,3.60
2023-04-03T08:13:22.315Z,3.70
2023-04-03T08:15:49.225Z,3.70
2023-04-03T08:18:17.141Z,3.70
2023-04-03T08:20:44.783Z,3.70
2023-04-03T08:23:12.153Z,3.70
2023-04-03T08:25:40.612Z,3.70
2023-04-03T08:28:07.744Z,3.80
2023-04-03T08:30:34.944Z,3.80
2023-04-03T08:33:03.146Z,3.90
2023-04-03T08:35:30.506Z,3.90
2023-04-03T08:37:57.634Z,4.00
2023-04-03T08:40:24.823Z,4.10
2023-04-03T08:42:57.663Z,4.10
2023-04-03T08:45:47.908Z,4.10
2023-04-03T08:48:39.293Z,4.00
2023-04-03T08:51:16.013Z,4.10
2023-04-03T08:54:01.754Z,4.10
2023-04-03T08:56:28.663Z,4.20
2023-04-03T08:59:02.868Z,4.30
2023-04-03T09:01:36.251Z,4.30
2023-04-03T09:04:10.077Z,4.30
2023-04-03T09:06:39.254Z,4.30
2023-04-03T09:09:24.579Z,4.30
2023-04-03T09:12:22.037Z,4.40
2023-04-03T09:15:06.705Z,4.50
2023-04-03T09:17:45.331Z,4.50
2023-04-03T09:20:36.533Z,4.50
2023-04-03T09:23:18.494Z,4.50
2023-04-03T09:25:45.998Z,4.40
2023-04-03T09:28:13.138Z,4.40
2023-04-03T09:30:40.153Z,4.40
2023-04-03T09:33:07.991Z,4.30
2023-04-03T09:35:47.538Z,4.40
2023-04-03T09:38:18.897Z,4.30
2023-04-03T09:41:08.532Z,4.30
2023-04-03T09:43:39.651Z,4.20
2023-04-03T09:46:23.359Z,4.30
2023-04-03T09:49:08.136Z,4.30
2023-04-03T09:51:36.849Z,4.30
2023-04-03T09:54:31.299Z,4.30
2023-04-03T09:57:05.248Z,4.40
2023-04-03T09:59:32.595Z,4.40
2023-04-03T10:02:03.050Z,4.40
2023-04-03T10:04:40.399Z,4.40
2023-04-03T10:07:32.281Z,4.50
2023-04-03T10:10:18.688Z,4.70
2023-04-03T10:12:45.497Z,4.70
2023-04-03T10:15:15.203Z,4.70
2023-04-03T10:18:17.908Z,4.70
2023-04-03T10:20:51.459Z,4.70
2023-04-03T10:23:43.892Z,4.70
2023-04-03T10:26:18.545Z,4.80
2023-04-03T10:29:16.008Z,4.80
2023-04-03T10:31:58.742Z,4.90
2023-04-03T10:34:28.511Z,4.80
2023-04-03T10:37:29.574Z,4.90
2023-04-03T10:40:32.222Z,5.10
2023-04-03T10:43:24.451Z,5.00
2023-04-03T10:45:58.234Z,5.00
2023-04-03T10:48:44.357Z,5.00
2023-04-03T10:51:33.043Z,5.10
2023-04-03T10:54:21.207Z,5.10
2023-04-03T10:57:08.718Z,5.00
2023-04-03T11:00:04.121Z,5.00
2023-04-03T11:02:53.706Z,5.30
2023-04-03T11:05:35.205Z,5.30
2023-04-03T11:08:09.033Z,5.30
2023-04-03T11:10:45.984Z,5.30
2023-04-03T11:13:17.312Z,5.20
2023-04-03T11:15:47.592Z,5.20
2023-04-03T11:18:23.790Z,5.10
2023-04-03T11:21:13.934Z,5.00
2023-04-03T11:23:49.511Z,5.00
2023-04-03T11:26:26.431Z,4.90
2023-04-03T11:28:57.260Z,4.90
2023-04-03T11:31:39.482Z,4.90
2023-04-03T11:34:41.672Z,4.90
2023-04-03T11:37:17.975Z,4.90
2023-04-03T11:39:57.701Z,4.90
2023-04-03T11:42:33.710Z,4.90
2023-04-03T11:45:38.118Z,4.90
2023-04-03T11:48:28.374Z,4.90
2023-04-03T11:50:57.766Z,4.90
2023-04-03T11:53:35.508Z,4.80
2023-04-03T11:56:05.528Z,4.90
2023-04-03T11:58:34.169Z,4.90
2023-04-03T12:01:03.965Z,4.90
2023-04-03T12:03:33.474Z,4.90
2023-04-03T12:06:11.913Z,4.90
2023-04-03T12:08:47.998Z,4.90
2023-04-03T12:11:17.572Z,5.10
2023-04-03T12:13:51.007Z,5.10
2023-04-03T12:16:23.772Z,5.10
2023-04-03T12:18:50.600Z,5.00
2023-04-03T12:21:19.894Z,5.00
2023-04-03T12:24:25.692Z,5.00
2023-04-03T12:26:59.228Z,5.00
2023-04-03T12:29:48.139Z,5.00
2023-04-03T12:32:50.572Z,5.00
2023-04-03T12:35:32.603Z,5.00
2023-04-03T12:38:34.320Z,4.90
2023-04-03T12:41:19.322Z,4.90
2023-04-03T12:44:16.639Z,4.90
2023-04-03T12:46:50.500Z,5.00
2023-04-03T12:49:38.471Z,5.00
2023-04-03T12:52:20.943Z,5.10
2023-04-03T12:54:49.883Z,5.20
2023-04-03T12:57:16.661Z,5.30
2023-04-03T12:59:46.486Z,5.40
2023-04-03T13:02:22.678Z,5.50
2023-04-03T13:04:50.636Z,5.50
2023-04-03T13:07:23.142Z,5.40
2023-04-03T13:10:03.007Z,5.40
2023-04-03T13:12:34.082Z,5.40
2023-04-03T13:15:14.922Z,5.40
2023-04-03T13:17:44.132Z,5.40
2023-04-03T13:20:26.684Z,5.50
2023-04-03T13:23:02.321Z,5.50
2023-04-03T13:25:43.060Z,5.60
2023-04-03T13:28:18.908Z,5.60
2023-04-03T13:31:19.012Z,5.60
2023-04-03T13:33:59.887Z,5.50
2023-04-03T13:36:54.156Z,5.50
2023-04-03T13:39:32.615Z,5.50
2023-04-03T13:42:02.891Z,5.50
2023-04-03T13:44:37.636Z,5.60
2023-04-03T13:47:16.867Z,5.60
2023-04-03T13:50:17.481Z,5.60
2023-04-03T13:52:46.528Z,5.50
2023-04-03T13:55:35.621Z,5.50
2023-04-03T13:58:22.703Z,5.50
2023-04-03T14:00:58.593Z,5.50
2023-04-03T14:03:44.404Z,5.40
2023-04-03T14:06:17.779Z,5.60
2023-04-03T14:08:46.417Z,5.60
2023-04-03T14:11:26.046Z,5.50
2023-04-03T14:13:55.317Z,5.50
2023-04-03T14:16:31.862Z,5.60
2023-04-03T14:19:04.933Z,5.60
2023-04-03T14:21:32.087Z,5.60
2023-04-03T14:23:58.939Z,5.70
2023-04-03T14:26:28.195Z,5.70
2023-04-03T14:28:56.895Z,5.70
2023-04-03T14:31:25.138Z,5.70
2023-04-03T14:33:52.349Z,5.70
2023-04-03T14:36:26.447Z,5.70
2023-04-03T14:38:54.548Z,5.90
2023-04-03T14:41:24.489Z,6.00
2023-04-03T14:43:51.877Z,6.00
2023-04-03T14:46:26.424Z,6.00
2023-04-03T14:48:54.547Z,6.00
2023-04-03T14:51:21.442Z,6.00
2023-04-03T14:53:50.160Z,6.00
2023-04-03T14:56:27.733Z,6.00
2023-04-03T14:59:00.558Z,5.80
2023-04-03T15:01:29.377Z,5.80
2023-04-03T15:03:56.300Z,5.70
2023-04-03T15:06:23.304Z,5.70
2023-04-03T15:08:50.037Z,5.70
2023-04-03T15:11:17.096Z,5.70
2023-04-03T15:13:43.990Z,5.70
2023-04-03T15:16:18.494Z,5.80
2023-04-03T15:18:46.586Z,5.80
2023-04-03T15:21:14.024Z,5.90
2023-04-03T15:23:40.883Z,5.90
2023-04-03T15:26:07.882Z,5.90
2023-04-03T15:28:38.662Z,5.80
2023-04-03T15:31:06.550Z,5.70
2023-04-03T15:33:35.102Z,5.70
2023-04-03T15:36:07.344Z,5.70
2023-04-03T15:38:39.201Z,5.60
2023-04-03T15:41:06.489Z,5.70
2023-04-03T15:43:34.725Z,5.70
2023-04-03T15:46:02.126Z,5.60
2023-04-03T15:48:29.795Z,5.70
2023-04-03T15:50:57.863Z,5.70
2023-04-03T15:53:25.932Z,5.70
2023-04-03T15:55:52.751Z,5.80
2023-04-03T15:58:19.628Z,5.70
2023-04-03T16:00:46.619Z,5.80
2023-04-03T16:03:17.860Z,5.70
2023-04-03T16:05:44.951Z,5.70
2023-04-03T16:08:12.545Z,5.50
2023-04-03T16:10:40.598Z,5.50
2023-04-03T16:13:07.625Z,5.50
2023-04-03T16:15:36.217Z,5.50
2023-04-03T16:18:04.073Z,5.40
2023-04-03T16:20:31.538Z,5.50
2023-04-03T16:23:00.722Z,5.60
2023-04-03T16:25:27.701Z,5.50
2023-04-03T16:27:54.560Z,5.50
2023-04-03T16:30:21.400Z,5.50
2023-04-03T16:32:48.866Z,5.50
2023-04-03T16:35:15.759Z,5.50
2023-04-03T16:37:42.461Z,5.50
2023-04-03T16:40:10.437Z,5.50
2023-04-03T16:42:38.087Z,5.50
2023-04-03T16:45:06.935Z,5.50
2023-04-03T16:47:34.034Z,5.40
2023-04-03T16:50:01.156Z,5.40
2023-04-03T16:52:28.063Z,5.30
2023-04-03T16:54:56.498Z,5.30
2023-04-03T16:57:25.646Z,5.30
2023-04-03T16:59:53.207Z,5.30
2023-04-03T17:02:21.359Z,5.30
2023-04-03T17:04:49.070Z,5.30
2023-04-03T17:07:17.768Z,5.30
2023-04-03T17:09:44.455Z,5.20
2023-04-03T17:12:11.353Z,5.20
2023-04-03T17:14:38.058Z,5.20
2023-04-03T17:17:05.290Z,5.30
2023-04-03T17:19:32.174Z,5.20
2023-04-03T17:21:59.292Z,5.20
2023-04-03T17:24:26.426Z,5.20
2023-04-03T17:26:53.147Z,5.20
2023-04-03T17:29:19.951Z,5.10
2023-04-03T17:31:46.779Z,5.10
2023-04-03T17:34:13.537Z,5.10
2023-04-03T17:36:41.633Z,5.10
2023-04-03T17:39:08.683Z,5.00
2023-04-03T17:41:35.501Z,5.00
2023-04-03T17:44:02.664Z,5.00
2023-04-03T17:46:30.948Z,5.00
2023-04-03T17:48:59.558Z,5.00
2023-04-03T17:51:26.898Z,5.00
2023-04-03T17:53:53.580Z,5.00
2023-04-03T17:56:23.406Z,5.00
2023-04-03T17:58:51.137Z,5.00
2023-04-03T18:01:27.922Z,4.90
2023-04-03T18:03:57.999Z,4.90
2023-04-03T18:06:30.684Z,4.90
2023-04-03T18:09:04.564Z,4.90
2023-04-03T18:11:31.452Z,4.90
2023-04-03T18:14:02.395Z,4.80
2023-04-03T18:16:29.933Z,4.90
2023-04-03T18:19:06.922Z,4.80
2023-04-03T18:21:45.951Z,4.80
2023-04-03T18:24:15.758Z,4.80
2023-04-03T18:26:44.494Z,4.80
2023-04-03T18:29:11.906Z,4.80
2023-04-03T18:31:43.899Z,4.80
2023-04-03T18:34:11.657Z,4.70
2023-04-03T18:36:38.595Z,4.70
2023-04-03T18:39:05.319Z,4.60
2023-04-03T18:41:35.445Z,4.60
2023-04-03T18:44:06.954Z,4.60
2023-04-03T18:46:34.066Z,4.50
2023-04-03T18:49:00.943Z,4.60
2023-04-03T18:51:28.043Z,4.50
2023-04-03T18:53:54.697Z,4.50
2023-04-03T18:56:22.293Z,4.50
2023-04-03T18:58:49.251Z,4.40
2023-04-03T19:01:16.438Z,4.40
2023-04-03T19:03:43.757Z,4.40
2023-04-03T19:06:10.814Z,4.40
2023-04-03T19:08:37.692Z,4.40
2023-04-03T19:11:05.020Z,4.30
2023-04-03T19:13:32.666Z,4.30
2023-04-03T19:16:00.171Z,4.30
2023-04-03T19:18:28.107Z,4.30
2023-04-03T19:20:56.887Z,4.30
2023-04-03T19:23:26.939Z,4.20
2023-04-03T19:26:06.410Z,4.20
2023-04-03T19:28:33.260Z,4.10
2023-04-03T19:31:01.363Z,4.10
2023-04-03T19:33:28.665Z,4.10
2023-04-03T19:35:55.714Z,4.00
2023-04-03T19:38:22.623Z,4.10
2023-04-03T19:40:49.537Z,4.00
2023-04-03T19:43:17.068Z,3.90
2023-04-03T19:45:46.055Z,3.90
2023-04-03T19:48:13.052Z,3.90
2023-04-03T19:50:40.440Z,3.90
2023-04-03T19:53:11.148Z,3.90
2023-04-03T19:55:38.786Z,3.80
2023-04-03T19:58:05.784Z,3.80
2023-04-03T20:00:32.949Z,3.80
2023-04-03T20:02:59.865Z,3.80
2023-04-03T20:05:26.691Z,3.80
2023-04-03T20:07:53.634Z,3.80
2023-04-03T20:10:20.440Z,3.70
2023-04-03T20:12:47.388Z,3.70
2023-04-03T20:15:14.177Z,3.70
2023-04-03T20:17:41.303Z,3.70
2023-04-03T20:20:08.829Z,3.70
2023-04-03T20:22:37.587Z,3.60
2023-04-03T20:25:07.429Z,3.60
2023-04-03T20:27:34.918Z,3.50
2023-04-03T20:30:04.057Z,3.60
2023-04-03T20:32:31.461Z,3.50
2023-04-03T20:35:04.370Z,3.50
2023-04-03T20:37:32.382Z,3.50
2023-04-03T20:39:59.367Z,3.50
2023-04-03T20:42:26.139Z,3.40
2023-04-03T20:44:52.947Z,3.40
2023-04-03T20:47:19.846Z,3.40
2023-04-03T20:49:46.625Z,3.30
2023-04-03T20:52:13.301Z,3.30
2023-04-03T20:54:40.806Z,3.20
2023-04-03T20:57:07.614Z,3.20
2023-04-03T20:59:35.045Z,3.10
2023-04-03T21:02:01.760Z,3.10
2023-04-03T21:04:35.289Z,3.10
2023-04-03T21:07:40.072Z,3.00
2023-04-03T21:10:44.351Z,2.90
2023-04-03T21:13:48.838Z,3.00
2023-04-03T21:16:15.631Z,2.90
2023-04-03T21:18:50.142Z,2.80
2023-04-03T21:21:23.359Z,2.80
2023-04-03T21:23:51.833Z,2.70
2023-04-03T21:26:19.540Z,2.70
2023-04-03T21:28:46.480Z,2.70
2023-04-03T21:31:14.975Z,2.60
2023-04-03T21:33:42.709Z,2.60
2023-04-03T21:36:10.238Z,2.50
2023-04-03T21:38:36.971Z,2.60
2023-04-03T21:41:03.906Z,2.50
2023-04-03T21:43:30.813Z,2.40
2023-04-03T21:45:59.716Z,2.40
2023-04-03T21:48:30.824Z,2.40
2023-04-03T21:51:05.102Z,2.40
2023-04-03T21:53:34.047Z,2.30
2023-04-03T21:56:02.432Z,2.30
2023-04-03T21:58:33.667Z,2.20
2023-04-03T22:01:11.194Z,2.20
2023-04-03T22:03:38.753Z,2.20
2023-04-03T22:06:05.687Z,2.10
2023-04-03T22:08:32.478Z,2.10
2023-04-03T22:11:05.801Z,2.10
2023-04-03T22:13:33.235Z,2.10
2023-04-03T22:16:00.663Z,2.10
2023-04-03T22:18:27.702Z,2.00
2023-04-03T22:20:55.042Z,1.90
2023-04-03T22:23:22.533Z,1.90
2023-04-03T22:26:11.906Z,1.90
2023-04-03T22:28:43.653Z,1.90
2023-04-03T22:31:13.531Z,1.80
2023-04-03T22:33:41.428Z,1.80
2023-04-03T22:36:10.786Z,1.70
2023-04-03T22:38:38.916Z,1.70
2023-04-03T22:41:07.748Z,1.70
2023-04-03T22:43:37.522Z,1.70
2023-04-03T22:46:06.631Z,1.60
2023-04-03T22:48:33.557Z,1.70
2023-04-03T22:51:01.624Z,1.60
2023-04-03T22:53:28.801Z,1.60
2023-04-03T22:55:56.465Z,1.60
2023-04-03T22:58:26.151Z,1.60
2023-04-03T23:00:54.380Z,1.50
2023-04-03T23:03:23.320Z,1.50
2023-04-03T23:05:51.753Z,1.40
2023-04-03T23:08:19.183Z,1.40
2023-04-03T23:10:46.206Z,1.40
2023-04-03T23:13:13.102Z,1.40
2023-04-03T23:15:39.760Z,1.40
2023-04-03T23:18:06.963Z,1.30
2023-04-03T23:20:33.710Z,1.30
2023-04-03T23:23:00.546Z,1.30
2023-04-03T23:25:27.254Z,1.30
2023-04-03T23:27:54.483Z,1.20
2023-04-03T23:30:21.726Z,1.30
2023-04-03T23:32:48.822Z,1.20
2023-04-03T23:35:15.719Z,1.10
2023-04-03T23:37:42.775Z,1.10
2023-04-03T23:40:10.121Z,1.10
2023-04-03T23:42:36.832Z,1.00
2023-04-03T23:45:03.862Z,1.00
2023-04-03T23:47:30.697Z,1.00
2023-04-03T23:50:01.456Z,0.90
2023-04-03T23:52:28.515Z,1.00
2023-04-03T23:54:55.762Z,1.00
2023-04-03T23:57:22.547Z,0.90
2023-04-03T23:59:49.299Z,0.80
